createdAt,value
2019-04-30T00:02:16.946Z,37.10
2019-04-30T00:04:48.061Z,36.50
2019-04-30T00:07:19.046Z,36.77
2019-04-30T00:09:49.267Z,39.00
2019-04-30T00:12:17.648Z,39.03
2019-04-30T00:14:46.118Z,36.83
2019-04-30T00:17:16.015Z,35.67
2019-04-30T00:19:45.895Z,39.23
2019-04-30T00:22:15.814Z,36.47
2019-04-30T00:24:48.074Z,38.87
2019-04-30T00:27:15.105Z,37.47
2019-04-30T00:29:45.706Z,36.63
2019-04-30T00:32:15.953Z,37.23
2019-04-30T00:34:45.582Z,36.17
2019-04-30T00:37:18.530Z,37.43
2019-04-30T00:39:50.740Z,36.33
2019-04-30T00:42:17.299Z,35.67
2019-04-30T00:44:52.707Z,37.57
2019-04-30T00:47:21.456Z,35.57
2019-04-30T00:49:52.044Z,37.43
2019-04-30T00:52:21.303Z,35.57
2019-04-30T00:54:49.911Z,35.67
2019-04-30T00:57:18.607Z,36.43
2019-04-30T00:59:48.069Z,36.63
2019-04-30T01:02:32.168Z,35.67
2019-04-30T01:05:05.181Z,35.00
2019-04-30T01:07:35.329Z,36.63
2019-04-30T01:10:05.139Z,36.17
2019-04-30T01:12:39.096Z,38.07
2019-04-30T01:15:06.403Z,34.97
2019-04-30T01:17:35.770Z,37.40
2019-04-30T01:20:05.575Z,37.30
2019-04-30T01:22:34.210Z,39.27
2019-04-30T01:25:09.131Z,39.87
2019-04-30T01:27:34.166Z,35.77
2019-04-30T01:30:04.318Z,40.23
2019-04-30T01:32:32.518Z,38.13
2019-04-30T01:35:00.637Z,40.93
2019-04-30T01:37:32.610Z,40.60
2019-04-30T01:40:03.192Z,39.47
2019-04-30T01:42:29.325Z,36.43
2019-04-30T01:44:58.993Z,39.27
2019-04-30T01:47:28.834Z,36.57
2019-04-30T01:50:00.942Z,34.33
2019-04-30T01:52:49.342Z,34.00
2019-04-30T01:55:20.840Z,34.40
2019-04-30T01:57:59.234Z,34.10
2019-04-30T02:00:33.065Z,34.10
2019-04-30T02:03:01.626Z,32.20
2019-04-30T02:05:29.915Z,33.40
2019-04-30T02:07:58.580Z,31.73
2019-04-30T02:10:28.544Z,31.03
2019-04-30T02:12:59.056Z,32.97
2019-04-30T02:15:29.186Z,28.60
2019-04-30T02:17:58.693Z,30.63
2019-04-30T02:20:28.667Z,28.13
2019-04-30T02:22:58.705Z,26.80
2019-04-30T02:25:29.338Z,27.87
2019-04-30T02:27:59.053Z,26.03
2019-04-30T02:30:30.502Z,26.90
2019-04-30T02:33:00.635Z,26.67
2019-04-30T02:35:42.247Z,27.27
2019-04-30T02:38:20.157Z,26.10
2019-04-30T02:40:50.774Z,25.80
2019-04-30T02:43:22.644Z,26.47
2019-04-30T02:45:54.465Z,27.57
2019-04-30T02:48:25.079Z,24.80
2019-04-30T02:50:57.267Z,24.97
2019-04-30T02:54:23.896Z,24.97
2019-04-30T02:56:55.882Z,25.40
2019-04-30T02:59:24.425Z,25.07
2019-04-30T03:01:52.936Z,25.57
2019-04-30T03:04:21.066Z,24.57
2019-04-30T03:06:50.447Z,24.53
2019-04-30T03:09:20.247Z,24.90
2019-04-30T03:11:50.163Z,23.53
2019-04-30T03:14:20.103Z,24.60
2019-04-30T03:16:55.697Z,24.87
2019-04-30T03:19:42.274Z,24.90
2019-04-30T03:22:22.756Z,23.30
2019-04-30T03:24:51.192Z,22.17
2019-04-30T03:27:21.060Z,24.50
2019-04-30T03:29:50.502Z,22.50
2019-04-30T03:32:22.427Z,23.30
2019-04-30T03:34:51.544Z,24.83
2019-04-30T03:37:19.942Z,24.67
2019-04-30T03:39:49.357Z,26.70
2019-04-30T03:42:19.857Z,26.60
2019-04-30T03:44:51.751Z,25.37
2019-04-30T03:47:20.438Z,27.37
2019-04-30T03:49:49.905Z,27.53
2019-04-30T03:52:19.754Z,29.83
2019-04-30T03:54:49.422Z,28.77
2019-04-30T03:57:20.306Z,29.30
2019-04-30T03:59:49.936Z,28.90
2019-04-30T04:02:32.076Z,28.63
2019-04-30T04:05:21.621Z,29.93
2019-04-30T04:08:04.890Z,29.87
2019-04-30T04:10:53.078Z,29.63
2019-04-30T04:13:21.965Z,28.40
2019-04-30T04:15:50.271Z,28.43
2019-04-30T04:18:20.204Z,29.37
2019-04-30T04:20:51.995Z,29.83
2019-04-30T04:23:19.444Z,29.70
2019-04-30T04:25:49.902Z,29.10
2019-04-30T04:28:20.249Z,27.20
2019-04-30T04:30:50.595Z,31.47
2019-04-30T04:33:20.053Z,28.07
2019-04-30T04:35:49.897Z,29.10
2019-04-30T04:38:20.355Z,31.27
2019-04-30T04:40:50.178Z,30.53
2019-04-30T04:43:20.166Z,28.60
2019-04-30T04:45:49.764Z,31.57
2019-04-30T04:48:19.861Z,29.87
2019-04-30T04:50:50.131Z,29.73
2019-04-30T04:53:19.621Z,28.27
2019-04-30T04:55:49.865Z,32.20
2019-04-30T04:58:21.713Z,30.43
2019-04-30T05:00:49.452Z,28.67
2019-04-30T05:03:24.138Z,29.10
2019-04-30T05:05:53.174Z,28.60
2019-04-30T05:08:21.378Z,28.77
2019-04-30T05:10:50.184Z,30.70
2019-04-30T05:13:19.202Z,28.87
2019-04-30T05:15:51.239Z,27.97
2019-04-30T05:18:19.167Z,29.83
2019-04-30T05:20:49.020Z,30.20
2019-04-30T05:23:21.558Z,30.80
2019-04-30T05:25:49.100Z,29.70
2019-04-30T05:28:18.946Z,30.67
2019-04-30T05:30:49.258Z,31.77
2019-04-30T05:33:18.991Z,32.83
2019-04-30T05:35:47.270Z,31.33
2019-04-30T05:38:15.446Z,31.17
2019-04-30T05:40:43.569Z,30.93
2019-04-30T05:43:12.473Z,32.60
2019-04-30T05:45:41.135Z,33.50
2019-04-30T05:48:09.600Z,30.53
2019-04-30T05:50:39.116Z,33.67
2019-04-30T05:53:08.981Z,35.03
2019-04-30T05:55:39.262Z,33.27
2019-04-30T05:58:09.373Z,34.60
2019-04-30T06:00:39.780Z,36.80
2019-04-30T06:03:09.450Z,34.53
2019-04-30T06:05:39.368Z,36.03
2019-04-30T06:08:10.708Z,36.33
2019-04-30T06:10:49.581Z,35.10
2019-04-30T06:13:25.723Z,34.13
2019-04-30T06:16:00.223Z,34.80
2019-04-30T06:18:28.748Z,34.00
2019-04-30T06:20:57.212Z,34.03
2019-04-30T06:23:25.413Z,32.07
2019-04-30T06:25:59.938Z,31.03
2019-04-30T06:28:24.712Z,30.57
2019-04-30T06:30:53.709Z,29.53
2019-04-30T06:33:21.967Z,28.93
2019-04-30T06:35:51.396Z,31.10
2019-04-30T06:38:19.836Z,32.20
2019-04-30T06:40:48.895Z,33.93
2019-04-30T06:43:20.520Z,31.03
2019-04-30T06:45:51.203Z,30.47
2019-04-30T06:48:19.985Z,29.23
2019-04-30T06:50:49.251Z,29.80
2019-04-30T06:53:19.250Z,32.20
2019-04-30T06:55:49.215Z,32.10
2019-04-30T06:58:20.550Z,32.97
2019-04-30T07:00:49.769Z,32.97
2019-04-30T07:03:19.188Z,32.37
2019-04-30T07:05:48.818Z,32.87
2019-04-30T07:08:46.768Z,29.27
2019-04-30T07:11:29.329Z,32.27
2019-04-30T07:13:59.807Z,32.43
2019-04-30T07:16:29.640Z,28.27
2019-04-30T07:18:58.625Z,30.03
2019-04-30T07:21:31.195Z,29.07
2019-04-30T07:23:59.572Z,28.90
2019-04-30T07:26:28.945Z,29.03
2019-04-30T07:29:01.998Z,28.70
2019-04-30T07:31:29.560Z,30.20
2019-04-30T07:33:59.481Z,27.53
2019-04-30T07:36:44.285Z,28.17
2019-04-30T07:38:59.871Z,27.57
2019-04-30T07:41:30.865Z,27.57
2019-04-30T07:43:59.658Z,27.50
2019-04-30T07:46:30.039Z,27.70
2019-04-30T07:49:00.099Z,27.07
2019-04-30T07:51:32.072Z,28.70
2019-04-30T07:53:59.022Z,27.57
2019-04-30T07:56:32.393Z,27.53
2019-04-30T07:59:00.775Z,25.27
2019-04-30T08:01:29.497Z,27.70
2019-04-30T08:04:18.852Z,26.70
2019-04-30T08:06:47.691Z,26.80
2019-04-30T08:09:19.608Z,28.27
2019-04-30T08:11:49.128Z,27.60
2019-04-30T08:14:18.486Z,27.13
2019-04-30T08:16:48.505Z,27.63
2019-04-30T08:19:19.109Z,27.17
2019-04-30T08:21:48.606Z,26.23
2019-04-30T08:24:16.937Z,27.63
2019-04-30T08:26:45.057Z,26.27
2019-04-30T08:29:13.935Z,25.47
2019-04-30T08:31:42.251Z,26.03
2019-04-30T08:34:11.005Z,25.73
2019-04-30T08:36:39.749Z,25.27
2019-04-30T08:39:09.676Z,23.63
2019-04-30T08:41:39.230Z,24.10
2019-04-30T08:44:09.430Z,23.37
2019-04-30T08:46:38.772Z,23.47
2019-04-30T08:49:09.800Z,22.63
2019-04-30T08:51:38.912Z,24.47
2019-04-30T08:54:09.552Z,22.70
2019-04-30T08:56:38.865Z,23.77
2019-04-30T08:59:08.731Z,22.93
2019-04-30T09:01:38.695Z,21.17
2019-04-30T09:04:07.731Z,23.20
2019-04-30T09:06:36.054Z,20.63
2019-04-30T09:09:15.759Z,21.33
2019-04-30T09:11:53.094Z,21.93
2019-04-30T09:14:14.573Z,22.10
2019-04-30T09:16:42.774Z,22.13
2019-04-30T09:19:11.017Z,20.60
2019-04-30T09:21:40.235Z,22.40
2019-04-30T09:24:09.533Z,21.93
2019-04-30T09:26:39.195Z,20.90
2019-04-30T09:29:09.308Z,20.13
2019-04-30T09:31:40.794Z,19.57
2019-04-30T09:34:17.127Z,19.20
2019-04-30T09:36:39.352Z,22.20
2019-04-30T09:39:08.946Z,19.63
2019-04-30T09:41:37.358Z,20.37
2019-04-30T09:44:07.383Z,20.47
2019-04-30T09:46:36.176Z,19.90
2019-04-30T09:49:04.841Z,19.80
2019-04-30T09:51:33.679Z,20.10
2019-04-30T09:54:03.548Z,19.87
2019-04-30T09:56:33.420Z,22.60
2019-04-30T09:59:02.012Z,19.87
2019-04-30T10:01:32.456Z,19.67
2019-04-30T10:04:01.729Z,19.67
2019-04-30T10:06:39.599Z,20.77
2019-04-30T10:09:01.404Z,18.90
2019-04-30T10:11:45.973Z,20.93
2019-04-30T10:14:14.696Z,19.93
2019-04-30T10:17:02.647Z,19.10
2019-04-30T10:19:31.468Z,20.53
2019-04-30T10:22:00.334Z,19.37
2019-04-30T10:24:29.506Z,20.37
2019-04-30T10:26:59.932Z,18.77
2019-04-30T10:29:28.501Z,19.37
2019-04-30T10:31:58.789Z,18.87
2019-04-30T10:34:27.638Z,19.23
2019-04-30T10:36:59.614Z,18.80
2019-04-30T10:39:29.687Z,20.50
2019-04-30T10:41:58.076Z,20.20
2019-04-30T10:44:29.769Z,20.07
2019-04-30T10:46:59.371Z,19.03
2019-04-30T10:49:29.217Z,20.77
2019-04-30T10:52:00.823Z,21.00
2019-04-30T10:54:29.078Z,19.83
2019-04-30T10:56:59.152Z,20.33
2019-04-30T10:59:27.742Z,20.43
2019-04-30T11:01:56.180Z,20.07
2019-04-30T11:04:24.408Z,20.87
2019-04-30T11:06:54.692Z,22.33
2019-04-30T11:09:24.898Z,20.50
2019-04-30T11:11:53.117Z,19.73
2019-04-30T11:14:21.710Z,20.60
2019-04-30T11:16:51.659Z,18.73
2019-04-30T11:19:20.213Z,19.30
2019-04-30T11:21:49.283Z,19.63
2019-04-30T11:24:19.507Z,19.17
2019-04-30T11:26:50.071Z,19.67
2019-04-30T11:29:18.310Z,21.00
2019-04-30T11:31:53.433Z,19.23
2019-04-30T11:34:22.072Z,18.37
2019-04-30T11:36:51.329Z,19.13
2019-04-30T11:39:21.483Z,19.37
2019-04-30T11:41:49.649Z,19.43
2019-04-30T11:44:28.467Z,19.00
2019-04-30T11:47:26.236Z,19.57
2019-04-30T11:49:54.700Z,18.63
2019-04-30T11:52:23.131Z,18.83
2019-04-30T11:54:54.316Z,18.93
2019-04-30T11:57:21.605Z,17.87
2019-04-30T11:59:49.819Z,18.43
2019-04-30T12:02:31.895Z,17.70
2019-04-30T12:05:00.076Z,16.30
2019-04-30T12:07:48.295Z,17.73
2019-04-30T12:10:36.716Z,16.90
2019-04-30T12:13:09.594Z,17.67
2019-04-30T12:15:37.921Z,17.10
2019-04-30T12:18:06.227Z,17.70
2019-04-30T12:20:34.687Z,16.97
2019-04-30T12:23:02.826Z,18.53
2019-04-30T12:25:31.006Z,17.03
2019-04-30T12:27:59.625Z,17.20
2019-04-30T12:30:28.975Z,15.60
2019-04-30T12:32:58.988Z,15.80
2019-04-30T12:35:27.377Z,15.20
2019-04-30T12:37:55.555Z,13.33
2019-04-30T12:40:29.082Z,13.97
2019-04-30T12:42:54.641Z,13.07
2019-04-30T12:45:24.108Z,13.27
2019-04-30T12:47:56.324Z,13.23
2019-04-30T12:50:53.566Z,14.40
2019-04-30T12:53:30.973Z,13.27
2019-04-30T12:56:26.669Z,13.60
2019-04-30T12:58:49.525Z,14.93
2019-04-30T13:01:17.680Z,14.77
2019-04-30T13:03:55.937Z,15.00
2019-04-30T13:06:17.173Z,14.43
2019-04-30T13:08:46.744Z,14.30
2019-04-30T13:11:16.321Z,14.83
2019-04-30T13:13:45.467Z,14.13
2019-04-30T13:16:13.944Z,15.43
2019-04-30T13:18:42.201Z,14.13
2019-04-30T13:21:10.420Z,14.20
2019-04-30T13:23:38.884Z,14.93
2019-04-30T13:26:08.963Z,15.53
2019-04-30T13:28:48.775Z,15.23
2019-04-30T13:31:19.238Z,16.00
2019-04-30T13:33:52.439Z,15.90
2019-04-30T13:36:21.480Z,16.70
2019-04-30T13:39:02.278Z,16.80
2019-04-30T13:41:44.510Z,18.00
2019-04-30T13:44:14.701Z,16.87
2019-04-30T13:46:42.961Z,16.83
2019-04-30T13:49:11.223Z,18.00
2019-04-30T13:51:39.392Z,17.90
2019-04-30T13:54:08.466Z,17.60
2019-04-30T13:56:36.976Z,18.63
2019-04-30T13:59:05.121Z,18.27
2019-04-30T14:01:33.468Z,20.10
2019-04-30T14:04:28.020Z,20.67
2019-04-30T14:07:15.771Z,19.40
2019-04-30T14:09:44.159Z,18.00
2019-04-30T14:12:12.763Z,20.17
2019-04-30T14:14:41.077Z,19.40
2019-04-30T14:17:09.410Z,20.37
2019-04-30T14:19:37.713Z,20.03
2019-04-30T14:22:08.818Z,20.40
2019-04-30T14:24:37.346Z,19.50
2019-04-30T14:27:06.217Z,17.90
2019-04-30T14:29:34.329Z,16.17
2019-04-30T14:32:03.228Z,16.00
2019-04-30T14:34:31.675Z,16.70
2019-04-30T14:37:00.188Z,13.80
2019-04-30T14:39:29.166Z,13.43
2019-04-30T14:42:00.071Z,13.33
2019-04-30T14:44:31.853Z,12.83
2019-04-30T14:47:22.790Z,12.00
2019-04-30T14:50:05.242Z,12.10
2019-04-30T14:52:40.714Z,11.23
2019-04-30T14:55:29.470Z,11.97
2019-04-30T14:58:16.499Z,10.47
2019-04-30T15:01:00.685Z,10.37
2019-04-30T15:03:29.729Z,10.97
2019-04-30T15:05:58.990Z,7.63
2019-04-30T15:08:29.185Z,9.97
2019-04-30T15:10:57.428Z,9.40
2019-04-30T15:13:25.980Z,10.40
2019-04-30T15:15:54.089Z,10.30
2019-04-30T15:18:23.029Z,10.10
2019-04-30T15:20:51.843Z,10.60
2019-04-30T15:23:58.576Z,10.70
2019-04-30T15:26:24.473Z,11.10
2019-04-30T15:28:49.488Z,11.33
2019-04-30T15:31:18.476Z,11.80
2019-04-30T15:34:12.444Z,12.90
2019-04-30T15:36:41.086Z,13.53
2019-04-30T15:39:42.204Z,12.93
2019-04-30T15:42:12.096Z,11.60
2019-04-30T15:44:45.422Z,11.00
2019-04-30T15:47:13.443Z,11.40
2019-04-30T15:49:41.869Z,11.60
2019-04-30T15:52:10.996Z,13.10
2019-04-30T15:54:39.984Z,13.10
2019-04-30T15:57:08.883Z,13.37
2019-04-30T15:59:44.431Z,13.83
2019-04-30T16:02:21.145Z,14.33
2019-04-30T16:05:07.710Z,16.17
2019-04-30T16:07:40.765Z,15.27
2019-04-30T16:10:24.391Z,15.60
2019-04-30T16:13:00.241Z,15.13
2019-04-30T16:15:29.786Z,17.13
2019-04-30T16:18:00.101Z,16.90
2019-04-30T16:20:30.040Z,17.90
2019-04-30T16:22:59.111Z,19.23
2019-04-30T16:25:27.414Z,17.10
2019-04-30T16:27:55.534Z,19.20
2019-04-30T16:30:23.982Z,18.17
2019-04-30T16:32:52.099Z,20.80
2019-04-30T16:35:20.945Z,20.90
2019-04-30T16:37:49.651Z,21.23
2019-04-30T16:40:19.055Z,21.30
2019-04-30T16:42:48.971Z,18.80
2019-04-30T16:45:18.927Z,20.80
2019-04-30T16:47:47.498Z,21.63
2019-04-30T16:50:16.135Z,20.97
2019-04-30T16:52:44.527Z,20.87
2019-04-30T16:55:13.604Z,23.23
2019-04-30T16:57:41.729Z,24.60
2019-04-30T17:00:14.412Z,23.23
2019-04-30T17:02:45.506Z,24.17
2019-04-30T17:05:21.166Z,23.47
2019-04-30T17:08:06.960Z,24.33
2019-04-30T17:10:57.842Z,25.33
2019-04-30T17:13:45.645Z,26.27
2019-04-30T17:16:19.542Z,27.50
2019-04-30T17:18:49.958Z,26.47
2019-04-30T17:21:19.687Z,25.57
2019-04-30T17:23:50.869Z,25.47
2019-04-30T17:26:18.456Z,27.43
2019-04-30T17:28:46.900Z,26.60
2019-04-30T17:31:15.237Z,25.03
2019-04-30T17:33:43.498Z,25.90
2019-04-30T17:36:11.604Z,25.97
2019-04-30T17:38:40.280Z,27.57
2019-04-30T17:41:08.798Z,28.07
2019-04-30T17:43:39.492Z,28.13
2019-04-30T17:46:08.026Z,29.43
2019-04-30T17:48:36.159Z,26.43
2019-04-30T17:51:04.533Z,26.10
2019-04-30T17:53:34.374Z,28.07
2019-04-30T17:56:02.635Z,27.90
2019-04-30T17:58:30.852Z,29.50
2019-04-30T18:01:01.712Z,30.63
2019-04-30T18:03:29.824Z,31.13
2019-04-30T18:05:59.181Z,30.93
2019-04-30T18:08:27.603Z,31.37
2019-04-30T18:10:56.816Z,33.73
2019-04-30T18:13:25.073Z,30.70
2019-04-30T18:15:53.730Z,30.80
2019-04-30T18:18:31.243Z,28.93
2019-04-30T18:21:19.007Z,26.07
2019-04-30T18:24:05.836Z,27.00
2019-04-30T18:26:37.736Z,27.50
2019-04-30T18:29:06.222Z,27.60
2019-04-30T18:31:34.556Z,26.50
2019-04-30T18:34:02.758Z,27.93
2019-04-30T18:36:31.111Z,29.57
2019-04-30T18:38:59.499Z,28.83
2019-04-30T18:41:28.232Z,30.20
2019-04-30T18:43:56.507Z,28.47
2019-04-30T18:46:25.016Z,32.00
2019-04-30T18:48:53.325Z,31.57
2019-04-30T18:51:35.861Z,31.73
2019-04-30T18:53:51.824Z,31.30
2019-04-30T18:56:20.089Z,31.63
2019-04-30T18:58:49.173Z,31.57
2019-04-30T19:01:17.820Z,31.43
2019-04-30T19:03:46.698Z,28.17
2019-04-30T19:06:23.837Z,31.67
2019-04-30T19:09:13.189Z,29.40
2019-04-30T19:11:49.375Z,31.87
2019-04-30T19:14:26.429Z,30.43
2019-04-30T19:17:14.449Z,28.67
2019-04-30T19:20:11.457Z,30.83
2019-04-30T19:22:40.464Z,29.13
2019-04-30T19:25:09.085Z,29.30
2019-04-30T19:27:37.227Z,30.57
2019-04-30T19:30:06.084Z,29.20
2019-04-30T19:32:34.869Z,31.23
2019-04-30T19:35:03.853Z,30.83
2019-04-30T19:37:32.355Z,30.37
2019-04-30T19:40:00.839Z,29.80
2019-04-30T19:42:29.492Z,29.73
2019-04-30T19:45:08.688Z,28.87
2019-04-30T19:47:30.693Z,30.23
2019-04-30T19:49:59.490Z,28.23
2019-04-30T19:52:29.654Z,28.33
2019-04-30T19:54:58.712Z,28.60
2019-04-30T19:57:28.655Z,29.50
2019-04-30T19:59:58.687Z,28.80
2019-04-30T20:02:29.362Z,28.53
2019-04-30T20:04:59.058Z,29.00
2019-04-30T20:07:29.127Z,28.93
2019-04-30T20:10:03.488Z,26.43
2019-04-30T20:12:29.057Z,26.60
2019-04-30T20:14:57.570Z,24.83
2019-04-30T20:17:25.763Z,25.37
2019-04-30T20:19:54.081Z,27.10
2019-04-30T20:22:22.578Z,26.97
2019-04-30T20:24:51.534Z,26.70
2019-04-30T20:27:19.796Z,27.73
2019-04-30T20:29:49.350Z,27.73
2019-04-30T20:32:20.841Z,26.93
2019-04-30T20:34:49.026Z,28.30
2019-04-30T20:37:19.611Z,27.73
2019-04-30T20:40:08.694Z,28.80
2019-04-30T20:42:40.030Z,27.40
2019-04-30T20:45:18.838Z,27.53
2019-04-30T20:47:49.578Z,27.50
2019-04-30T20:50:18.090Z,26.63
2019-04-30T20:52:46.368Z,28.80
2019-04-30T20:55:14.693Z,29.40
2019-04-30T20:57:42.902Z,29.13
2019-04-30T21:00:12.369Z,29.03
2019-04-30T21:02:40.769Z,29.03
2019-04-30T21:05:09.012Z,29.13
2019-04-30T21:07:37.613Z,23.27
2019-04-30T21:10:10.169Z,28.43
2019-04-30T21:12:39.654Z,28.87
2019-04-30T21:15:09.685Z,31.63
2019-04-30T21:17:38.180Z,28.40
2019-04-30T21:20:09.598Z,29.70
2019-04-30T21:22:38.825Z,29.23
2019-04-30T21:25:09.296Z,29.57
2019-04-30T21:27:40.226Z,29.97
2019-04-30T21:30:10.462Z,29.83
2019-04-30T21:32:59.437Z,28.23
2019-04-30T21:35:51.265Z,28.33
2019-04-30T21:38:19.951Z,29.23
2019-04-30T21:40:49.220Z,28.20
2019-04-30T21:43:17.653Z,27.47
2019-04-30T21:45:45.773Z,26.03
2019-04-30T21:48:13.947Z,25.83
2019-04-30T21:51:25.515Z,26.30
2019-04-30T21:53:53.721Z,24.03
2019-04-30T21:56:21.915Z,23.37
2019-04-30T21:58:50.600Z,26.07
2019-04-30T22:01:22.525Z,25.73
2019-04-30T22:03:50.815Z,25.17
2019-04-30T22:08:55.314Z,25.07
2019-04-30T22:11:23.615Z,23.87
2019-04-30T22:13:51.759Z,26.63
2019-04-30T22:16:20.575Z,23.50
2019-04-30T22:18:48.950Z,23.33
2019-04-30T22:21:17.119Z,23.83
2019-04-30T22:23:45.684Z,23.77
2019-04-30T22:26:13.831Z,23.53
2019-04-30T22:28:42.436Z,24.43
2019-04-30T22:31:11.074Z,23.97
2019-04-30T22:33:39.555Z,23.87
2019-04-30T22:36:38.653Z,25.00
2019-04-30T22:39:30.749Z,24.67
2019-04-30T22:42:39.689Z,23.10
2019-04-30T22:45:22.698Z,24.17
2019-04-30T22:47:51.389Z,23.47
2019-04-30T22:50:19.531Z,23.13
2019-04-30T22:52:48.259Z,20.30
2019-04-30T22:55:16.399Z,22.77
2019-04-30T22:57:44.909Z,23.53
2019-04-30T23:00:21.880Z,24.60
2019-04-30T23:02:56.979Z,24.07
2019-04-30T23:05:25.585Z,23.20
2019-04-30T23:07:54.177Z,25.10
2019-04-30T23:10:22.586Z,26.03
2019-04-30T23:12:51.835Z,25.33
2019-04-30T23:15:21.016Z,24.87
2019-04-30T23:17:49.360Z,25.57
2019-04-30T23:20:18.001Z,25.13
2019-04-30T23:22:46.346Z,24.90
2019-04-30T23:25:14.879Z,24.77
2019-04-30T23:27:43.053Z,24.87
2019-04-30T23:30:12.298Z,24.10
2019-04-30T23:32:40.484Z,25.33
2019-04-30T23:35:10.585Z,24.63
2019-04-30T23:37:38.745Z,25.13
2019-04-30T23:40:32.046Z,25.03
2019-04-30T23:43:00.428Z,23.70
2019-04-30T23:45:29.093Z,27.33
2019-04-30T23:47:57.268Z,25.20
2019-04-30T23:50:25.436Z,26.00
2019-04-30T23:52:53.607Z,26.03
2019-04-30T23:55:22.114Z,24.40
2019-04-30T23:57:50.365Z,27.07
